createdAt,value
2023-04-11T01:15:12.943Z,0.00
2023-04-11T01:16:12.853Z,0.00
2023-04-11T03:24:46.759Z,0.00
2023-04-11T03:25:46.877Z,0.00
2023-04-11T03:26:45.054Z,0.00
2023-04-11T03:27:46.255Z,0.00
2023-04-11T03:28:44.659Z,0.00
2023-04-11T03:29:44.598Z,0.00
2023-04-11T03:30:44.538Z,0.00
2023-04-11T03:31:44.505Z,0.00
2023-04-11T03:32:44.490Z,0.00
2023-04-11T03:33:44.362Z,0.00
2023-04-11T03:34:44.261Z,0.00
2023-04-11T03:35:44.225Z,0.00
2023-04-11T03:36:44.153Z,0.00
2023-04-11T03:37:44.069Z,0.00
2023-04-11T03:38:44.270Z,0.00
2023-04-11T03:39:43.953Z,0.00
2023-04-11T03:40:43.986Z,0.00
2023-04-11T03:41:43.807Z,0.00
2023-04-11T03:42:43.767Z,0.00
2023-04-11T03:43:43.702Z,0.00
2023-04-11T03:44:43.615Z,0.00
2023-04-11T03:45:43.570Z,0.00
2023-04-11T03:46:43.592Z,0.00
2023-04-11T03:47:43.479Z,0.00
2023-04-11T03:48:43.353Z,0.00
2023-04-11T03:49:43.324Z,0.00
2023-04-11T03:50:43.240Z,0.00
2023-04-11T03:51:43.158Z,0.00
2023-04-11T03:52:43.106Z,0.00
2023-04-11T03:53:43.039Z,0.00
2023-04-11T03:54:43.331Z,0.00
2023-04-11T03:55:42.904Z,0.00
2023-04-11T03:56:42.842Z,0.00
2023-04-11T03:57:42.799Z,0.00
2023-04-11T03:58:42.714Z,0.00
2023-04-11T03:59:42.657Z,0.00
2023-04-11T04:00:42.579Z,0.00
2023-04-11T04:01:42.566Z,0.00
2023-04-11T04:02:42.756Z,0.00
2023-04-11T04:03:42.613Z,0.00
2023-04-11T04:04:42.384Z,0.00
2023-04-11T04:05:42.270Z,0.00
2023-04-11T04:06:42.193Z,0.00
2023-04-11T04:07:42.203Z,0.00
2023-04-11T04:08:42.051Z,0.00
2023-04-11T04:09:42.006Z,0.00
2023-04-11T04:10:41.941Z,0.00
2023-04-11T04:11:41.856Z,0.00
2023-04-11T04:12:41.790Z,0.00
2023-04-11T04:13:41.742Z,0.00
2023-04-11T04:14:41.686Z,0.00
2023-04-11T04:15:41.596Z,0.00
2023-04-11T04:16:41.623Z,0.00
2023-04-11T04:17:41.475Z,0.00
2023-04-11T04:18:41.406Z,0.00
2023-04-11T04:19:41.349Z,0.00
2023-04-11T04:20:41.269Z,0.00
2023-04-11T04:21:41.213Z,0.00
2023-04-11T04:22:41.138Z,0.00
2023-04-11T04:23:41.138Z,4.00
2023-04-11T04:24:41.060Z,4.00
2023-04-11T04:25:40.949Z,4.00
2023-04-11T04:26:40.901Z,0.00
2023-04-11T04:27:40.823Z,4.00
2023-04-11T04:28:40.769Z,8.00
2023-04-11T04:29:40.700Z,4.00
2023-04-11T04:30:40.622Z,8.00
2023-04-11T04:31:40.600Z,4.00
2023-04-11T04:32:40.539Z,8.00
2023-04-11T04:33:40.444Z,8.00
2023-04-11T04:34:40.363Z,4.00
2023-04-11T04:35:40.310Z,8.00
2023-04-11T04:36:40.251Z,4.00
2023-04-11T04:37:40.176Z,8.00
2023-04-11T04:38:40.097Z,8.00
2023-04-11T04:39:40.036Z,8.00
2023-04-11T04:40:39.993Z,8.00
2023-04-11T04:41:39.910Z,12.00
2023-04-11T04:42:39.842Z,12.00
2023-04-11T04:43:39.806Z,16.00
2023-04-11T04:44:39.721Z,16.00
2023-04-11T04:45:39.705Z,16.00
2023-04-11T04:46:39.614Z,20.00
2023-04-11T04:47:39.561Z,20.00
2023-04-11T04:48:39.456Z,24.00
2023-04-11T04:49:39.390Z,28.00
2023-04-11T04:50:39.360Z,24.00
2023-04-11T04:51:39.257Z,28.00
2023-04-11T04:52:39.191Z,32.00
2023-04-11T04:53:39.153Z,32.00
2023-04-11T04:54:39.056Z,36.00
2023-04-11T04:55:39.007Z,32.00
2023-04-11T04:56:38.970Z,36.00
2023-04-11T04:57:38.872Z,44.00
2023-04-11T04:58:38.801Z,40.00
2023-04-11T04:59:38.735Z,36.00
2023-04-11T05:00:38.693Z,28.00
2023-04-11T05:01:38.742Z,32.00
2023-04-11T05:02:38.642Z,36.00
2023-04-11T05:03:38.821Z,36.00
2023-04-11T05:04:38.409Z,36.00
2023-04-11T05:05:38.370Z,44.00
2023-04-11T05:06:38.278Z,52.00
2023-04-11T05:07:38.221Z,48.00
2023-04-11T05:08:38.147Z,60.00
2023-04-11T05:09:38.089Z,56.00
2023-04-11T05:10:38.047Z,60.00
2023-04-11T05:11:37.962Z,56.00
2023-04-11T05:12:37.888Z,44.00
2023-04-11T05:13:37.845Z,44.00
2023-04-11T05:14:37.766Z,48.00
2023-04-11T05:15:37.691Z,48.00
2023-04-11T05:16:37.665Z,48.00
2023-04-11T05:17:37.639Z,48.00
2023-04-11T05:18:37.499Z,56.00
2023-04-11T05:19:37.425Z,64.00
2023-04-11T05:20:37.381Z,76.00
2023-04-11T05:21:37.300Z,88.00
2023-04-11T05:22:37.233Z,80.00
2023-04-11T05:23:37.185Z,100.00
2023-04-11T05:24:37.155Z,88.00
2023-04-11T05:25:37.045Z,68.00
2023-04-11T05:26:36.972Z,64.00
2023-04-11T05:27:36.952Z,56.00
2023-04-11T05:28:36.851Z,64.00
2023-04-11T05:29:36.778Z,84.00
2023-04-11T05:30:36.755Z,96.00
2023-04-11T05:31:36.647Z,136.00
2023-04-11T05:32:36.612Z,132.00
2023-04-11T05:33:36.533Z,124.00
2023-04-11T05:34:36.468Z,148.00
2023-04-11T05:35:36.403Z,172.00
2023-04-11T05:36:36.317Z,192.00
2023-04-11T05:37:36.281Z,208.00
2023-04-11T05:38:36.192Z,232.00
2023-04-11T05:39:36.125Z,252.00
2023-04-11T05:40:36.056Z,316.00
2023-04-11T05:41:36.026Z,392.00
2023-04-11T05:42:35.923Z,464.00
2023-04-11T05:43:35.857Z,448.00
2023-04-11T05:44:35.812Z,404.00
2023-04-11T05:45:35.726Z,360.00
2023-04-11T05:46:35.803Z,308.00
2023-04-11T05:47:35.672Z,332.00
2023-04-11T05:48:35.542Z,420.00
2023-04-11T05:49:35.469Z,524.00
2023-04-11T05:50:35.400Z,500.00
2023-04-11T05:51:35.358Z,472.00
2023-04-11T05:52:35.272Z,488.00
2023-04-11T05:53:35.227Z,464.00
2023-04-11T05:54:35.192Z,452.00
2023-04-11T05:55:35.081Z,404.00
2023-04-11T05:56:35.006Z,428.00
2023-04-11T05:57:34.945Z,396.00
2023-04-11T05:58:34.910Z,416.00
2023-04-11T05:59:34.839Z,420.00
2023-04-11T06:00:34.742Z,440.00
2023-04-11T06:01:34.711Z,424.00
2023-04-11T06:02:34.769Z,400.00
2023-04-11T06:03:34.624Z,404.00
2023-04-11T06:04:34.669Z,424.00
2023-04-11T06:05:34.439Z,456.00
2023-04-11T06:06:34.354Z,472.00
2023-04-11T06:07:34.278Z,536.00
2023-04-11T06:08:34.248Z,608.00
2023-04-11T06:09:34.312Z,672.00
2023-04-11T06:10:34.075Z,768.00
2023-04-11T06:11:34.011Z,852.00
2023-04-11T06:12:34.000Z,920.00
2023-04-11T06:13:33.897Z,984.00
2023-04-11T06:14:33.818Z,992.00
2023-04-11T06:15:33.860Z,1024.00
2023-04-11T06:16:33.718Z,1104.00
2023-04-11T06:17:33.639Z,1136.00
2023-04-11T06:18:33.558Z,1148.00
2023-04-11T06:19:33.501Z,1132.00
2023-04-11T06:20:33.426Z,1084.00
2023-04-11T06:21:33.355Z,1024.00
2023-04-11T06:22:33.313Z,868.00
2023-04-11T06:23:33.218Z,612.00
2023-04-11T06:24:33.154Z,440.00
2023-04-11T06:25:33.094Z,320.00
2023-04-11T06:26:33.055Z,172.00
2023-04-11T06:27:32.964Z,132.00
2023-04-11T06:28:32.905Z,136.00
2023-04-11T06:29:32.842Z,152.00
2023-04-11T06:30:32.785Z,152.00
2023-04-11T06:31:32.736Z,140.00
2023-04-11T06:32:32.653Z,144.00
2023-04-11T06:33:32.596Z,216.00
2023-04-11T06:34:32.506Z,236.00
2023-04-11T06:35:32.443Z,196.00
2023-04-11T06:36:32.413Z,228.00
2023-04-11T06:37:32.306Z,332.00
2023-04-11T06:38:32.244Z,424.00
2023-04-11T06:39:32.176Z,524.00
2023-04-11T06:40:32.118Z,548.00
2023-04-11T06:41:32.039Z,544.00
2023-04-11T06:42:31.971Z,528.00
2023-04-11T06:43:31.947Z,524.00
2023-04-11T06:44:31.909Z,532.00
2023-04-11T06:45:31.794Z,560.00
2023-04-11T06:46:31.718Z,604.00
2023-04-11T06:47:31.672Z,588.00
2023-04-11T06:48:31.578Z,588.00
2023-04-11T06:49:31.541Z,644.00
2023-04-11T06:50:31.490Z,600.00
2023-04-11T06:51:31.387Z,600.00
2023-04-11T06:52:31.329Z,584.00
2023-04-11T06:53:31.251Z,716.00
2023-04-11T06:54:31.191Z,728.00
2023-04-11T06:55:31.120Z,656.00
2023-04-11T06:56:31.050Z,672.00
2023-04-11T06:57:31.013Z,552.00
2023-04-11T06:58:30.932Z,476.00
2023-04-11T06:59:30.855Z,316.00
2023-04-11T07:00:30.788Z,360.00
2023-04-11T07:01:30.845Z,436.00
2023-04-11T07:02:30.851Z,620.00
2023-04-11T07:03:30.770Z,936.00
2023-04-11T07:04:30.686Z,1268.00
2023-04-11T07:05:30.463Z,1348.00
2023-04-11T07:06:30.392Z,1468.00
2023-04-11T07:07:30.320Z,1580.00
2023-04-11T07:08:30.281Z,1468.00
2023-04-11T07:09:30.193Z,1128.00
2023-04-11T07:10:30.122Z,1028.00
2023-04-11T07:11:30.078Z,1056.00
2023-04-11T07:12:29.996Z,1320.00
2023-04-11T07:13:29.924Z,1368.00
2023-04-11T07:14:29.880Z,1688.00
2023-04-11T07:15:29.825Z,1672.00
2023-04-11T07:16:29.788Z,1872.00
2023-04-11T07:17:29.695Z,1996.00
2023-04-11T07:18:29.621Z,1868.00
2023-04-11T07:19:29.539Z,1784.00
2023-04-11T07:20:29.463Z,1616.00
2023-04-11T07:21:29.394Z,1216.00
2023-04-11T07:22:29.368Z,1484.00
2023-04-11T07:23:29.263Z,1544.00
2023-04-11T07:24:29.228Z,1816.00
2023-04-11T07:25:29.145Z,1948.00
2023-04-11T07:26:29.090Z,1728.00
2023-04-11T07:27:29.026Z,2040.00
2023-04-11T07:28:28.946Z,1900.00
2023-04-11T07:29:28.893Z,1764.00
2023-04-11T07:30:28.824Z,1908.00
2023-04-11T07:31:28.752Z,2120.00
2023-04-11T07:32:28.714Z,2176.00
2023-04-11T07:33:28.599Z,2280.00
2023-04-11T07:34:28.534Z,2100.00
2023-04-11T07:35:28.474Z,1900.00
2023-04-11T07:36:28.435Z,1848.00
2023-04-11T07:37:28.372Z,1936.00
2023-04-11T07:38:28.275Z,2204.00
2023-04-11T07:39:28.224Z,2140.00
2023-04-11T07:40:28.175Z,2088.00
2023-04-11T07:41:28.070Z,2132.00
2023-04-11T07:42:27.997Z,2288.00
2023-04-11T07:43:27.951Z,2492.00
2023-04-11T07:44:27.869Z,2556.00
2023-04-11T07:45:27.843Z,2556.00
2023-04-11T07:46:27.759Z,2688.00
2023-04-11T07:47:27.709Z,2736.00
2023-04-11T07:48:27.610Z,2728.00
2023-04-11T07:49:27.538Z,2600.00
2023-04-11T07:50:27.505Z,2520.00
2023-04-11T07:51:27.406Z,2468.00
2023-04-11T07:52:27.335Z,2452.00
2023-04-11T07:53:27.305Z,2292.00
2023-04-11T07:54:27.210Z,2040.00
2023-04-11T07:55:27.150Z,1764.00
2023-04-11T07:56:27.081Z,1592.00
2023-04-11T07:57:27.031Z,1496.00
2023-04-11T07:58:26.944Z,1436.00
2023-04-11T07:59:26.886Z,1436.00
2023-04-11T08:00:26.835Z,1428.00
2023-04-11T08:01:26.891Z,1520.00
2023-04-11T08:02:26.798Z,1784.00
2023-04-11T08:03:26.960Z,1716.00
2023-04-11T08:04:26.678Z,1584.00
2023-04-11T08:05:26.506Z,1572.00
2023-04-11T08:06:26.469Z,1328.00
2023-04-11T08:07:26.367Z,1228.00
2023-04-11T08:08:26.304Z,1144.00
2023-04-11T08:09:26.219Z,1140.00
2023-04-11T08:10:26.179Z,1096.00
2023-04-11T08:11:26.089Z,1172.00
2023-04-11T08:12:26.022Z,1304.00
2023-04-11T08:13:25.959Z,1448.00
2023-04-11T08:14:25.915Z,1780.00
2023-04-11T08:15:25.832Z,2124.00
2023-04-11T08:16:25.802Z,2356.00
2023-04-11T08:17:28.603Z,2420.00
2023-04-11T08:18:25.670Z,2140.00
2023-04-11T08:19:25.584Z,1960.00
2023-04-11T08:20:25.526Z,1904.00
2023-04-11T08:21:25.451Z,2048.00
2023-04-11T08:22:25.374Z,2044.00
2023-04-11T08:23:25.346Z,2168.00
2023-04-11T08:24:25.262Z,2268.00
2023-04-11T08:25:25.221Z,2592.00
2023-04-11T08:26:25.120Z,2444.00
2023-04-11T08:27:25.036Z,2168.00
2023-04-11T08:28:25.033Z,2080.00
2023-04-11T08:29:24.911Z,1908.00
2023-04-11T08:30:24.847Z,1640.00
2023-04-11T08:31:24.847Z,1476.00
2023-04-11T08:32:24.751Z,1584.00
2023-04-11T08:33:24.642Z,1944.00
2023-04-11T08:34:24.572Z,2408.00
2023-04-11T08:35:24.518Z,2756.00
2023-04-11T08:36:24.447Z,3068.00
2023-04-11T08:37:24.387Z,3484.00
2023-04-11T08:38:24.376Z,3388.00
2023-04-11T08:39:24.240Z,3064.00
2023-04-11T08:40:26.456Z,2644.00
2023-04-11T08:41:24.117Z,2384.00
2023-04-11T08:42:24.058Z,2556.00
2023-04-11T08:43:23.979Z,2964.00
2023-04-11T08:44:23.917Z,2900.00
2023-04-11T08:45:23.876Z,3092.00
2023-04-11T08:46:23.887Z,3096.00
2023-04-11T08:47:23.729Z,3284.00
2023-04-11T08:48:23.666Z,3200.00
2023-04-11T08:49:23.602Z,3164.00
2023-04-11T08:50:23.520Z,3372.00
2023-04-11T08:51:23.461Z,3544.00
2023-04-11T08:52:23.390Z,3568.00
2023-04-11T08:53:23.321Z,3644.00
2023-04-11T08:54:23.257Z,3688.00
2023-04-11T08:55:23.212Z,3356.00
2023-04-11T08:56:23.203Z,3264.00
2023-04-11T08:57:23.062Z,3508.00
2023-04-11T08:58:23.042Z,3420.00
2023-04-11T08:59:22.955Z,3112.00
2023-04-11T09:00:22.903Z,2904.00
2023-04-11T09:01:22.850Z,2840.00
2023-04-11T09:02:22.973Z,2692.00
2023-04-11T09:03:22.779Z,2632.00
2023-04-11T09:04:22.618Z,2656.00
2023-04-11T09:05:22.533Z,2384.00
2023-04-11T09:06:22.487Z,2300.00
2023-04-11T09:07:22.403Z,2036.00
2023-04-11T09:08:22.340Z,1908.00
2023-04-11T09:09:22.304Z,1992.00
2023-04-11T09:10:22.207Z,1880.00
2023-04-11T09:11:22.140Z,1764.00
2023-04-11T09:12:22.076Z,1904.00
2023-04-11T09:13:22.051Z,1928.00
2023-04-11T09:14:21.950Z,1584.00
2023-04-11T09:15:21.891Z,1488.00
2023-04-11T09:16:21.953Z,1652.00
2023-04-11T09:17:21.769Z,2120.00
2023-04-11T09:18:21.689Z,2028.00
2023-04-11T09:19:21.658Z,1824.00
2023-04-11T09:20:21.608Z,1744.00
2023-04-11T09:21:21.486Z,1604.00
2023-04-11T09:22:21.425Z,1496.00
2023-04-11T09:23:21.379Z,1656.00
2023-04-11T09:24:21.300Z,2296.00
2023-04-11T09:25:21.289Z,2176.00
2023-04-11T09:26:22.594Z,2040.00
2023-04-11T09:27:21.093Z,1760.00
2023-04-11T09:28:21.039Z,1812.00
2023-04-11T09:29:20.964Z,2180.00
2023-04-11T09:30:20.924Z,2244.00
2023-04-11T09:31:20.882Z,1956.00
2023-04-11T09:32:20.799Z,1956.00
2023-04-11T09:33:20.708Z,2024.00
2023-04-11T09:34:20.650Z,1816.00
2023-04-11T09:35:20.569Z,2148.00
2023-04-11T09:36:20.554Z,2424.00
2023-04-11T09:37:20.444Z,2504.00
2023-04-11T09:38:20.379Z,2508.00
2023-04-11T09:39:20.324Z,2488.00
2023-04-11T09:40:20.253Z,2328.00
2023-04-11T09:41:20.182Z,2492.00
2023-04-11T13:29:41.017Z,2916.00
2023-04-11T15:39:13.338Z,904.00
2023-04-11T15:40:16.354Z,960.00
2023-04-11T15:41:13.258Z,916.00
2023-04-11T15:42:13.048Z,940.00
2023-04-11T15:43:11.768Z,1064.00
2023-04-11T15:44:12.549Z,1100.00
2023-04-11T15:45:10.700Z,1236.00
2023-04-11T15:46:10.661Z,1264.00
2023-04-11T22:29:52.580Z,0.00
2023-04-11T22:30:52.275Z,0.00
